Time;durP1;ratioP1;P1;durP2;ratioP2;P2;SDS_P1;SDS_P2;PMS_P1;PMS_P2;Temp;Humidity;BMP_temperature;BMP_pressure;BME280_temperature;BME280_humidity;BME280_pressure;Samples;Min_cycle;Max_cycle;Signal;HPM_P1;HPM_P2
2021/12/09 00:00:17;;;;;;;38.53;14.23;;;;;;;-5.32;100.00;98087.97;4369478;32;20069;-72
2021/12/09 00:03:07;;;;;;;38.17;14.50;;;;;;;-5.02;100.00;98138.03;4369191;32;20482;-72
2021/12/09 00:05:35;;;;;;;48.95;15.45;;;;;;;-5.25;100.00;98078.41;4369790;32;20455;-71
2021/12/09 00:08:03;;;;;;;46.53;17.95;;;;;;;-5.03;100.00;98118.00;4368300;32;20036;-72
2021/12/09 00:10:30;;;;;;;37.55;13.57;;;;;;;-5.00;100.00;98143.91;4367915;32;20075;-73
2021/12/09 00:12:57;;;;;;;35.95;14.43;;;;;;;-4.96;100.00;98124.22;4368895;32;20352;-72
2021/12/09 00:15:23;;;;;;;34.22;12.82;;;;;;;-5.00;100.00;98128.16;4369331;32;20455;-71
2021/12/09 00:17:50;;;;;;;43.72;15.85;;;;;;;-4.92;100.00;98138.63;4369434;32;20079;-71
2021/12/09 00:20:18;;;;;;;33.20;13.98;;;;;;;-5.02;100.00;98135.41;4369895;32;20101;-71
2021/12/09 00:22:46;;;;;;;39.22;14.23;;;;;;;-4.94;100.00;98145.88;4367658;32;20372;-71
2021/12/09 00:25:13;;;;;;;37.10;13.10;;;;;;;-5.23;100.00;98093.97;4360828;32;20048;-71
2021/12/09 00:27:42;;;;;;;39.58;15.88;;;;;;;-5.24;100.00;98085.28;4354852;33;20483;-71
2021/12/09 00:30:11;;;;;;;35.10;12.63;;;;;;;-5.32;100.00;98087.97;4341004;33;20051;-71
2021/12/09 00:32:39;;;;;;;45.90;14.60;;;;;;;-4.96;100.00;98137.34;4339311;33;20031;-71
2021/12/09 00:35:07;;;;;;;55.95;21.30;;;;;;;-4.92;100.00;98125.50;4353430;33;20041;-71
2021/12/09 00:37:39;;;;;;;43.38;14.20;;;;;;;-4.97;100.00;98136.50;4353260;32;20440;-70
2021/12/09 00:40:08;;;;;;;39.25;15.73;;;;;;;-5.27;100.00;98080.37;4366058;32;20051;-71
2021/12/09 00:42:35;;;;;;;55.03;18.08;;;;;;;-5.11;100.00;98130.16;4356750;32;20052;-72
2021/12/09 00:45:02;;;;;;;43.53;16.33;;;;;;;-5.12;100.00;98128.56;4372101;32;20059;-70
2021/12/09 00:47:30;;;;;;;36.60;14.50;;;;;;;-5.13;100.00;98137.41;4372806;32;20174;-71
2021/12/09 00:49:57;;;;;;;38.08;14.57;;;;;;;-5.13;100.00;98140.03;4370836;32;20364;-72
2021/12/09 00:52:24;;;;;;;40.17;14.63;;;;;;;-5.06;100.00;98148.03;4371644;32;20085;-72
2021/12/09 00:54:52;;;;;;;45.12;16.02;;;;;;;-5.06;100.00;98145.41;4371479;32;20084;-72
2021/12/09 00:57:19;;;;;;;37.33;13.73;;;;;;;-5.07;100.00;98148.19;4372369;32;20365;-71
2021/12/09 00:59:46;;;;;;;43.65;16.70;;;;;;;-5.05;100.00;98141.00;4358853;32;20065;-72
2021/12/09 01:02:12;;;;;;;38.55;15.00;;;;;;;-5.02;100.00;98146.72;4372067;32;20039;-71
2021/12/09 01:04:39;;;;;;;44.78;15.93;;;;;;;-5.06;100.00;98129.66;4369959;32;20061;-71
2021/12/09 01:07:06;;;;;;;35.05;13.88;;;;;;;-5.38;100.00;98088.63;4361362;32;20481;-72
2021/12/09 01:09:33;;;;;;;38.63;14.35;;;;;;;-5.13;100.00;98133.97;4370804;32;20044;-70
2021/12/09 01:12:00;;;;;;;49.10;17.48;;;;;;;-5.09;100.00;98129.19;4358378;32;20089;-70
2021/12/09 01:14:27;;;;;;;43.65;17.17;;;;;;;-5.16;100.00;98114.12;4361701;32;20051;-72
2021/12/09 01:16:53;;;;;;;44.38;16.70;;;;;;;-5.19;100.00;98127.59;4356513;32;20055;-70
2021/12/09 01:19:20;;;;;;;32.33;12.73;;;;;;;-5.19;100.00;98118.91;4365845;32;20047;-71
2021/12/09 01:21:47;;;;;;;38.10;14.87;;;;;;;-5.47;100.00;98059.81;4372204;32;20128;-71
2021/12/09 01:24:13;;;;;;;46.45;14.90;;;;;;;-5.14;100.00;98112.16;4372091;32;20043;-71
2021/12/09 01:26:40;;;;;;;36.70;14.15;;;;;;;-5.11;100.00;98101.28;4370294;32;20087;-71
2021/12/09 01:29:15;;;;;;;49.15;19.90;;;;;;;-5.15;100.00;98079.03;4372038;32;20055;-71
2021/12/09 01:31:51;;;;;;;36.42;13.13;;;;;;;-5.48;100.00;98031.94;4367992;32;20069;-72
2021/12/09 01:34:19;;;;;;;33.60;13.48;;;;;;;-5.16;100.00;98082.63;4370176;32;20127;-71
2021/12/09 01:36:48;;;;;;;41.72;18.35;;;;;;;-5.57;100.00;98004.09;4371562;32;20081;-71
2021/12/09 01:39:14;;;;;;;43.35;18.08;;;;;;;-5.22;100.00;98091.19;4370724;32;20039;-71
2021/12/09 01:41:41;;;;;;;32.03;8.38;;;;;;;-5.17;100.00;98081.00;4369914;32;20384;-71
2021/12/09 01:44:08;;;;;;;37.05;13.57;;;;;;;-5.37;100.00;98056.97;4370706;32;20044;-71
2021/12/09 01:46:34;;;;;;;50.47;15.23;;;;;;;-5.42;100.00;98048.00;4369187;32;20061;-71
2021/12/09 01:49:00;;;;;;;25.60;10.52;;;;;;;-5.43;100.00;98033.25;4371776;32;20442;-71
2021/12/09 01:51:27;;;;;;;39.88;14.40;;;;;;;-5.24;100.00;98085.28;4369377;32;20047;-71
2021/12/09 01:53:54;;;;;;;31.87;12.98;;;;;;;-5.09;100.00;98088.00;4358209;32;20065;-71
2021/12/09 01:56:24;;;;;;;23.35;10.57;;;;;;;-5.37;100.00;98048.31;4354227;32;20113;-72
2021/12/09 01:58:54;;;;;;;38.03;14.02;;;;;;;-5.11;100.00;98096.03;4371198;32;20385;-71
2021/12/09 02:01:21;;;;;;;39.05;15.20;;;;;;;-5.02;100.00;98090.78;4371145;32;20099;-71
2021/12/09 02:03:48;;;;;;;42.88;16.45;;;;;;;-5.17;100.00;98086.25;4370814;32;20085;-72
2021/12/09 02:06:16;;;;;;;44.35;18.17;;;;;;;-5.20;100.00;98059.50;4370938;32;20059;-71
2021/12/09 02:08:43;;;;;;;37.03;13.15;;;;;;;-5.22;100.00;98067.56;4371502;32;20040;-71
2021/12/09 02:11:10;;;;;;;38.60;14.10;;;;;;;-5.47;100.00;98011.78;4357588;32;20308;-71
2021/12/09 02:13:37;;;;;;;38.38;13.73;;;;;;;-5.23;100.00;98058.06;4369686;32;20088;-72
2021/12/09 02:16:04;;;;;;;43.20;13.48;;;;;;;-5.22;100.00;98064.94;4369956;32;20089;-71
2021/12/09 02:18:32;;;;;;;43.55;18.10;;;;;;;-5.52;100.00;98009.69;4371448;32;20047;-71
2021/12/09 02:21:17;;;;;;;41.83;14.00;;;;;;;-5.67;100.00;98001.69;4371228;32;20036;-71
2021/12/09 02:23:53;;;;;;;41.20;15.27;;;;;;;-5.36;100.00;98065.66;4369039;32;20382;-71
2021/12/09 02:26:26;;;;;;;44.05;17.17;;;;;;;-5.57;100.00;98017.22;4354113;32;20062;-71
2021/12/09 02:28:54;;;;;;;49.15;18.55;;;;;;;-5.63;100.00;98004.81;4370383;32;20073;-71
2021/12/09 02:31:22;;;;;;;40.75;14.27;;;;;;;-5.33;100.00;98057.44;4367661;32;20094;-71
2021/12/09 02:33:49;;;;;;;33.17;14.25;;;;;;;-5.34;100.00;98058.47;4370947;32;20043;-71
2021/12/09 02:36:15;;;;;;;48.38;16.70;;;;;;;-5.35;100.00;98043.69;4371173;32;20035;-71
2021/12/09 02:38:45;;;;;;;45.42;15.18;;;;;;;-5.31;100.00;98058.13;4357965;32;20402;-71
2021/12/09 02:41:16;;;;;;;39.47;15.50;;;;;;;-5.26;100.00;98055.78;4354942;32;20061;-71
2021/12/09 02:43:46;;;;;;;38.45;15.10;;;;;;;-5.21;100.00;98061.34;4371118;32;20352;-71
2021/12/09 02:46:13;;;;;;;37.83;14.65;;;;;;;-5.28;100.00;98068.28;4370993;32;20116;-71
2021/12/09 02:48:39;;;;;;;36.45;15.30;;;;;;;-5.63;100.00;98023.19;4369675;32;20051;-72
2021/12/09 02:51:06;;;;;;;41.45;13.20;;;;;;;-6.00;100.00;97964.34;4370428;32;20055;-71
2021/12/09 02:53:34;;;;;;;47.25;18.15;;;;;;;-5.60;100.00;98014.97;4370640;32;20039;-71
2021/12/09 02:56:01;;;;;;;43.75;17.12;;;;;;;-5.74;100.00;98010.44;4369842;32;20122;-71
2021/12/09 02:58:28;;;;;;;38.33;15.18;;;;;;;-5.50;100.00;98044.41;4370924;32;20065;-71
2021/12/09 03:01:05;;;;;;;36.90;16.08;;;;;;;-5.36;100.00;98057.78;4369455;32;20069;-72
2021/12/09 03:03:32;;;;;;;28.60;12.25;;;;;;;-5.57;100.00;98048.69;4370285;32;20824;-71
2021/12/09 03:05:59;;;;;;;28.30;12.27;;;;;;;-5.48;100.00;98052.94;4370467;32;20039;-71
2021/12/09 03:08:34;;;;;;;39.40;14.90;;;;;;;-5.72;100.00;97998.78;4370865;32;20052;-71
2021/12/09 03:11:16;;;;;;;32.08;13.07;;;;;;;-5.42;100.00;98056.69;4369081;32;20106;-71
2021/12/09 03:13:44;;;;;;;32.00;13.20;;;;;;;-5.38;100.00;98068.47;4353705;32;20101;-71
2021/12/09 03:16:11;;;;;;;42.42;16.45;;;;;;;-5.70;100.00;98003.84;4355666;32;20087;-70
2021/12/09 03:18:44;;;;;;;45.65;17.48;;;;;;;-5.45;100.00;98067.53;4360919;32;20065;-74
2021/12/09 03:21:18;;;;;;;48.45;19.70;;;;;;;-5.66;100.00;98070.72;4357119;32;20073;-71
2021/12/09 03:23:51;;;;;;;47.55;21.67;;;;;;;-5.63;100.00;98064.31;4369296;32;20124;-71
2021/12/09 03:26:25;;;;;;;44.28;18.15;;;;;;;-5.86;100.00;98071.09;4354799;32;20040;-71
2021/12/09 03:28:57;;;;;;;46.60;18.48;;;;;;;-5.74;100.00;98074.19;4370040;32;20047;-71
2021/12/09 03:31:24;;;;;;;50.67;18.87;;;;;;;-5.71;100.00;98071.22;4370103;32;20048;-71
2021/12/09 03:33:51;;;;;;;38.20;14.98;;;;;;;-5.69;100.00;98060.56;4369769;32;20101;-72
2021/12/09 03:36:17;;;;;;;34.80;14.45;;;;;;;-5.56;100.00;98071.34;4369408;32;20323;-71
2021/12/09 03:38:44;;;;;;;33.15;12.57;;;;;;;-6.28;100.00;97993.59;4370030;32;20360;-70
2021/12/09 03:41:10;;;;;;;53.63;22.33;;;;;;;-5.85;100.00;98072.75;4356638;32;20153;-71
2021/12/09 03:43:37;;;;;;;51.25;18.48;;;;;;;-5.72;100.00;98076.66;4369703;32;20073;-71
2021/12/09 03:46:04;;;;;;;37.30;15.55;;;;;;;-5.97;100.00;98036.59;4368274;32;20031;-71
2021/12/09 03:48:32;;;;;;;25.55;9.85;;;;;;;-5.61;100.00;98092.00;4370354;32;20758;-71
2021/12/09 03:51:05;;;;;;;45.58;16.12;;;;;;;-5.69;100.00;98068.44;4357322;32;20032;-71
2021/12/09 03:53:32;;;;;;;38.15;13.68;;;;;;;-5.65;100.00;98074.97;4358601;32;20089;-71
2021/12/09 03:55:58;;;;;;;43.70;17.12;;;;;;;-5.84;100.00;98042.91;4352807;32;20032;-71
2021/12/09 03:58:26;;;;;;;44.50;17.50;;;;;;;-5.56;100.00;98076.56;4354800;32;20468;-71
2021/12/09 04:00:53;;;;;;;56.35;20.23;;;;;;;-5.74;100.00;98036.66;4354956;32;20053;-70
2021/12/09 04:03:21;;;;;;;43.85;16.33;;;;;;;-5.62;100.00;98065.94;4365917;32;20040;-70
2021/12/09 04:05:49;;;;;;;36.88;15.30;;;;;;;-5.39;100.00;98076.50;4368864;32;20369;-71
2021/12/09 04:08:17;;;;;;;40.75;16.33;;;;;;;-5.60;100.00;98028.09;4369713;32;20053;-71
2021/12/09 04:10:44;;;;;;;45.10;14.95;;;;;;;-5.37;100.00;98064.06;4369729;32;20353;-72
2021/12/09 04:13:11;;;;;;;48.53;18.42;;;;;;;-5.81;100.00;98014.72;4368083;32;20103;-71
2021/12/09 04:15:37;;;;;;;48.20;17.90;;;;;;;-5.43;100.00;98064.72;4368061;32;20451;-71
2021/12/09 04:18:04;;;;;;;37.83;14.25;;;;;;;-5.63;100.00;98035.47;4367984;32;20065;-72
2021/12/09 04:20:31;;;;;;;47.10;16.05;;;;;;;-5.49;100.00;98055.72;4369889;32;20048;-71
2021/12/09 04:22:58;;;;;;;49.03;17.50;;;;;;;-5.52;100.00;98050.81;4356740;32;20032;-71
2021/12/09 04:25:25;;;;;;;44.10;15.07;;;;;;;-6.80;100.00;97845.59;4359412;32;20106;-71
2021/12/09 04:27:53;;;;;;;39.30;14.40;;;;;;;-5.49;100.00;98025.06;4363040;32;20028;-72
2021/12/09 04:30:22;;;;;;;17.80;6.53;;;;;;;-5.68;100.00;98002.72;4368558;32;20032;-71
2021/12/09 04:35:31;;;;;;;55.88;24.23;;;;;;;-5.47;100.00;98053.78;4369543;32;20101;-72
2021/12/09 04:37:58;;;;;;;48.20;16.80;;;;;;;-5.60;100.00;98043.00;4353136;32;20171;-73
2021/12/09 04:40:24;;;;;;;47.92;18.77;;;;;;;-5.52;100.00;98043.78;4369476;32;20092;-73
2021/12/09 04:42:50;;;;;;;38.50;13.10;;;;;;;-5.53;100.00;98047.38;4369639;32;20097;-72
2021/12/09 04:45:17;;;;;;;50.50;16.15;;;;;;;-5.39;100.00;98045.84;4355942;32;20054;-73
2021/12/09 04:47:44;;;;;;;44.25;15.38;;;;;;;-5.38;100.00;98059.78;4369925;32;20039;-73
2021/12/09 04:50:11;;;;;;;52.85;19.02;;;;;;;-5.30;100.00;98070.22;4367606;32;20100;-73
2021/12/09 04:52:39;;;;;;;44.95;17.48;;;;;;;-5.44;100.00;98068.34;4368914;32;20085;-72
2021/12/09 04:55:07;;;;;;;49.08;17.23;;;;;;;-5.40;100.00;98077.50;4369345;32;20699;-72
2021/12/09 04:57:34;;;;;;;21.67;10.45;;;;;;;-5.41;100.00;98073.25;4368977;32;20052;-72
2021/12/09 05:00:06;;;;;;;58.87;20.85;;;;;;;-5.40;100.00;98080.13;4368223;32;20112;-73
2021/12/09 05:03:03;;;;;;;22.55;9.70;;;;;;;-5.73;100.00;98027.78;4354730;32;20422;-72
2021/12/09 05:05:19;;;;;;;49.42;20.05;;;;;;;-5.60;100.00;98035.97;4354802;33;20471;-72
2021/12/09 05:07:47;;;;;;;36.25;13.57;;;;;;;-5.54;100.00;98053.59;4354980;33;20043;-71
2021/12/09 05:10:14;;;;;;;42.03;16.15;;;;;;;-5.66;100.00;98028.75;4351905;33;20429;-72
2021/12/09 05:12:42;;;;;;;28.15;10.20;;;;;;;-5.60;100.00;98028.09;4354374;33;20081;-72
2021/12/09 05:15:09;;;;;;;50.55;21.20;;;;;;;-5.49;100.00;98056.56;4365839;32;20477;-73
2021/12/09 05:17:36;;;;;;;35.17;13.57;;;;;;;-5.72;100.00;98050.41;4366814;32;20073;-73
2021/12/09 05:20:05;;;;;;;43.72;15.18;;;;;;;-5.69;100.00;98039.59;4366323;32;20073;-72
2021/12/09 05:22:31;;;;;;;40.60;12.77;;;;;;;-5.64;100.00;98074.00;4355649;32;20043;-72
2021/12/09 05:24:58;;;;;;;34.58;11.93;;;;;;;-5.51;100.00;98058.53;4368346;32;20061;-72
2021/12/09 05:27:25;;;;;;;37.95;15.73;;;;;;;-5.72;100.00;98016.34;4371702;32;20073;-72
2021/12/09 05:30:03;;;;;;;44.58;18.17;;;;;;;-5.47;100.00;98049.31;4355420;32;20398;-70
2021/12/09 05:32:31;;;;;;;37.35;13.77;;;;;;;-5.53;100.00;98060.50;4371864;32;20082;-71
2021/12/09 05:34:57;;;;;;;41.20;13.23;;;;;;;-5.67;100.00;98058.59;4372013;32;20035;-74
2021/12/09 05:37:25;;;;;;;4.65;3.47;;;;;;;-5.56;100.00;98066.09;4371250;32;20065;-73
2021/12/09 05:39:55;;;;;;;45.47;15.65;;;;;;;-5.51;100.00;98061.12;4369145;32;20048;-74
2021/12/09 05:42:23;;;;;;;42.83;15.38;;;;;;;-5.85;100.00;98009.81;4357794;32;20048;-71
2021/12/09 05:44:50;;;;;;;40.22;15.98;;;;;;;-5.55;100.00;98083.47;4370221;32;20047;-73
2021/12/09 05:47:17;;;;;;;21.92;8.60;;;;;;;-5.62;100.00;98074.63;4371455;32;20039;-73
2021/12/09 05:49:46;;;;;;;20.98;9.23;;;;;;;-5.84;100.00;98032.44;4369957;32;20170;-74
2021/12/09 05:52:13;;;;;;;47.80;17.58;;;;;;;-5.49;100.00;98077.56;4368756;32;20492;-71
2021/12/09 05:54:41;;;;;;;44.22;15.73;;;;;;;-5.50;100.00;98085.59;4356825;32;20079;-71
2021/12/09 05:57:08;;;;;;;41.90;15.45;;;;;;;-5.42;100.00;98076.88;4370351;32;20069;-71
2021/12/09 05:59:34;;;;;;;47.60;15.15;;;;;;;-5.51;100.00;98063.75;4368622;32;20039;-72
2021/12/09 06:02:01;;;;;;;50.80;16.77;;;;;;;-5.47;100.00;98038.84;4371012;32;20208;-71
2021/12/09 06:04:28;;;;;;;52.95;18.62;;;;;;;-5.45;100.00;98032.59;4370778;32;20055;-72
2021/12/09 06:06:54;;;;;;;33.30;13.95;;;;;;;-5.56;100.00;98045.09;4371107;32;20043;-71
2021/12/09 06:09:21;;;;;;;47.28;16.90;;;;;;;-5.89;100.00;97966.59;4367701;32;20051;-72
2021/12/09 06:11:49;;;;;;;40.42;16.35;;;;;;;-5.51;100.00;98052.47;4371139;32;20787;-70
2021/12/09 06:14:16;;;;;;;31.40;13.38;;;;;;;-5.44;100.00;98077.03;4371360;32;20060;-71
2021/12/09 06:16:43;;;;;;;45.47;16.50;;;;;;;-5.46;100.00;98081.63;4363566;32;20062;-72
2021/12/09 06:19:09;;;;;;;52.05;14.38;;;;;;;-5.75;100.00;98050.75;4354589;32;20051;-72
2021/12/09 06:21:36;;;;;;;39.40;14.48;;;;;;;-5.61;100.00;98064.97;4363332;32;20047;-72
2021/12/09 06:24:03;;;;;;;41.03;17.62;;;;;;;-5.45;100.00;98092.94;4369365;32;20686;-73
2021/12/09 06:26:32;;;;;;;55.90;19.45;;;;;;;-5.44;100.00;98110.31;4371067;32;20364;-72
2021/12/09 06:28:59;;;;;;;44.58;19.55;;;;;;;-5.68;100.00;98104.16;4366494;32;20124;-71
2021/12/09 06:31:26;;;;;;;23.77;9.57;;;;;;;-5.88;100.00;98062.59;4350027;32;20054;-72
2021/12/09 06:33:53;;;;;;;35.65;14.95;;;;;;;-5.77;100.00;98057.97;4369898;32;20051;-71
2021/12/09 06:36:20;;;;;;;46.35;16.02;;;;;;;-5.39;100.00;98107.97;4369708;32;20039;-71
2021/12/09 06:38:47;;;;;;;26.15;9.80;;;;;;;-5.43;100.00;98106.72;4371222;32;20104;-71
2021/12/09 06:41:14;;;;;;;52.55;17.25;;;;;;;-5.44;100.00;98100.66;4355588;32;20057;-72
2021/12/09 06:43:40;;;;;;;35.50;13.23;;;;;;;-5.48;100.00;98094.91;4357826;32;20124;-71
2021/12/09 06:46:09;;;;;;;37.08;13.32;;;;;;;-5.56;100.00;98076.56;4367274;32;20047;-71
2021/12/09 06:48:37;;;;;;;36.38;12.82;;;;;;;-5.34;100.00;98110.94;4343011;32;20066;-71
2021/12/09 06:51:05;;;;;;;47.22;17.92;;;;;;;-5.27;100.00;98113.69;4365206;32;20349;-72
2021/12/09 06:53:36;;;;;;;43.10;16.95;;;;;;;-5.44;100.00;98110.31;4371450;32;20074;-71
2021/12/09 06:56:04;;;;;;;44.05;15.40;;;;;;;-5.34;100.00;98110.94;4370195;32;20460;-71
2021/12/09 06:58:31;;;;;;;42.50;15.75;;;;;;;-5.36;100.00;98112.91;4367606;32;20897;-71
2021/12/09 07:01:00;;;;;;;51.90;18.48;;;;;;;-5.33;100.00;98109.94;4369170;32;20040;-71
2021/12/09 07:03:27;;;;;;;48.33;18.67;;;;;;;-5.42;100.00;98082.94;4369166;32;20063;-71
2021/12/09 07:05:54;;;;;;;50.70;22.50;;;;;;;-5.27;100.00;98096.13;4368781;32;20117;-71
2021/12/09 07:08:21;;;;;;;43.92;18.45;;;;;;;-5.39;100.00;98098.31;4367474;32;20103;-71
2021/12/09 07:10:49;;;;;;;49.80;18.25;;;;;;;-5.59;100.00;98055.94;4363781;32;20457;-71
2021/12/09 07:13:15;;;;;;;44.42;17.05;;;;;;;-5.30;100.00;98123.56;4366083;32;20187;-71
2021/12/09 07:15:42;;;;;;;31.20;11.95;;;;;;;-5.27;100.00;98106.62;4353549;32;20052;-71
2021/12/09 07:18:08;;;;;;;36.22;12.20;;;;;;;-5.19;100.00;98093.47;4359031;32;20042;-71
2021/12/09 07:20:35;;;;;;;30.80;12.77;;;;;;;-5.13;100.00;98092.78;4355916;32;20040;-71
2021/12/09 07:23:02;;;;;;;41.08;16.48;;;;;;;-5.42;100.00;98051.44;4360921;32;20047;-70
2021/12/09 07:25:29;;;;;;;39.25;14.90;;;;;;;-5.14;100.00;98096.41;4360374;32;20373;-70
2021/12/09 07:27:56;;;;;;;41.35;13.85;;;;;;;-5.16;100.00;98093.13;4342332;32;20031;-70
2021/12/09 07:30:24;;;;;;;34.58;13.45;;;;;;;-5.18;100.00;98089.88;4354415;32;20055;-70
2021/12/09 07:32:51;;;;;;;48.95;15.38;;;;;;;-5.41;100.00;98041.75;4355886;32;20074;-72
2021/12/09 07:35:18;;;;;;;35.58;14.98;;;;;;;-5.08;100.00;98094.09;4368793;32;20411;-71
2021/12/09 07:37:45;;;;;;;39.10;14.50;;;;;;;-5.32;100.00;98045.97;4348487;32;20048;-70
2021/12/09 07:40:15;;;;;;;47.67;17.65;;;;;;;-5.36;100.00;98047.28;4341352;33;20048;-71
2021/12/09 07:42:44;;;;;;;42.62;16.27;;;;;;;-4.97;100.00;98101.56;4355842;32;20381;-71
2021/12/09 07:45:13;;;;;;;45.17;18.30;;;;;;;-5.02;100.00;98098.66;4353431;32;20109;-70
2021/12/09 07:47:40;;;;;;;45.75;17.60;;;;;;;-5.02;100.00;98106.53;4341406;32;20059;-70
2021/12/09 07:50:10;;;;;;;50.45;20.25;;;;;;;-5.32;100.00;98061.72;4364938;32;20400;-70
2021/12/09 07:52:37;;;;;;;42.33;18.02;;;;;;;-5.44;100.00;98073.56;4349440;33;20062;-70
2021/12/09 07:55:05;;;;;;;46.05;18.00;;;;;;;-5.01;100.00;98116.84;4353536;32;20048;-71
2021/12/09 07:57:33;;;;;;;38.33;14.82;;;;;;;-4.97;100.00;98109.44;4369900;32;20063;-70
2021/12/09 08:00:06;;;;;;;52.58;17.85;;;;;;;-4.96;100.00;98097.97;4364222;32;20090;-72
2021/12/09 08:02:43;;;;;;;41.78;15.65;;;;;;;-5.18;100.00;98073.31;4344027;32;20040;-70
2021/12/09 08:05:13;;;;;;;44.72;17.73;;;;;;;-4.90;100.00;98115.62;4358577;32;20113;-70
2021/12/09 08:07:41;;;;;;;41.22;17.10;;;;;;;-4.78;100.00;98132.63;4367393;32;20449;-71
2021/12/09 08:10:10;;;;;;;49.53;19.40;;;;;;;-5.11;100.00;98072.41;4355831;32;20445;-69
2021/12/09 08:12:38;;;;;;;26.90;11.23;;;;;;;-4.85;100.00;98131.69;4360851;32;20118;-71
2021/12/09 08:15:07;;;;;;;11.48;6.12;;;;;;;-4.76;100.00;98135.88;4362457;32;20400;-70
2021/12/09 08:20:06;;;;;;;37.33;14.45;;;;;;;-4.81;100.00;98119.84;4358675;32;20081;-70
2021/12/09 08:22:33;;;;;;;40.92;13.68;;;;;;;-4.73;100.00;98134.75;4337901;33;20382;-71
2021/12/09 08:25:00;;;;;;;46.35;17.40;;;;;;;-4.64;100.00;98130.25;4339386;32;20051;-70
2021/12/09 08:27:28;;;;;;;38.47;15.98;;;;;;;-4.64;100.00;98132.88;4360031;32;20048;-70
2021/12/09 08:29:55;;;;;;;52.97;17.45;;;;;;;-4.72;100.00;98109.28;4352937;32;20043;-69
2021/12/09 08:32:22;;;;;;;46.92;17.02;;;;;;;-4.65;100.00;98110.22;4352787;33;20062;-72
2021/12/09 08:34:50;;;;;;;47.38;18.75;;;;;;;-4.92;100.00;98067.72;4360307;32;20121;-71
2021/12/09 08:37:16;;;;;;;46.37;14.87;;;;;;;-4.63;100.00;98108.25;4360714;32;20061;-71
2021/12/09 08:39:43;;;;;;;48.50;18.50;;;;;;;-4.63;100.00;98095.09;4362358;32;20389;-71
2021/12/09 08:42:10;;;;;;;38.63;14.00;;;;;;;-4.82;100.00;98052.56;4361588;32;20369;-69
2021/12/09 08:44:36;;;;;;;49.28;18.20;;;;;;;-4.47;100.00;98102.84;4362244;32;20178;-71
2021/12/09 08:47:03;;;;;;;50.67;17.12;;;;;;;-4.46;100.00;98122.09;4365523;32;20242;-69
2021/12/09 08:49:30;;;;;;;51.95;18.90;;;;;;;-4.43;100.00;98114.66;4355711;32;20055;-70
2021/12/09 08:51:56;;;;;;;50.75;18.35;;;;;;;-4.48;100.00;98117.00;4369906;32;20043;-70
2021/12/09 08:54:23;;;;;;;57.90;17.50;;;;;;;-4.88;100.00;98069.03;4367495;32;20043;-70
2021/12/09 08:56:50;;;;;;;34.65;13.73;;;;;;;-4.57;100.00;98107.53;4367290;32;20047;-71
2021/12/09 08:59:19;;;;;;;40.30;15.82;;;;;;;-4.52;100.00;98115.72;4368873;32;20048;-70
2021/12/09 09:01:46;;;;;;;51.53;19.42;;;;;;;-4.36;100.00;98106.06;4370520;32;20426;-70
2021/12/09 09:04:13;;;;;;;46.78;18.75;;;;;;;-4.40;100.00;98106.44;4372368;32;20047;-71
2021/12/09 09:06:55;;;;;;;50.67;19.55;;;;;;;-4.68;100.00;98071.19;4369579;32;20047;-70
2021/12/09 09:09:25;;;;;;;;;;;;;;;-4.42;100.00;98097.91;4357183;32;20066;-71
2021/12/09 09:11:52;;;;;;;19.00;6.75;;;;;;;-4.31;100.00;98106.34;4362235;32;20316;-70
2021/12/09 09:14:18;;;;;;;45.35;17.77;;;;;;;-4.54;100.00;98059.91;4362828;32;20154;-71
2021/12/09 09:16:45;;;;;;;45.63;15.00;;;;;;;-4.55;100.00;98053.00;4364165;32;20117;-70
2021/12/09 09:19:13;;;;;;;46.03;17.40;;;;;;;-4.08;100.00;98120.28;4344543;32;20043;-70
2021/12/09 09:21:42;;;;;;;39.78;14.43;;;;;;;-4.24;100.00;98123.06;4356419;32;20047;-70
2021/12/09 09:24:10;;;;;;;51.65;19.08;;;;;;;-4.19;100.00;98112.84;4342890;32;20073;-71
2021/12/09 09:26:38;;;;;;;54.25;21.62;;;;;;;-4.22;100.00;98136.84;4358654;32;20083;-71
2021/12/09 09:29:05;;;;;;;52.78;15.57;;;;;;;-4.49;100.00;98088.28;4357505;32;20062;-70
2021/12/09 09:31:33;;;;;;;52.67;17.98;;;;;;;-4.07;100.00;98124.56;4355525;32;20052;-70
2021/12/09 09:34:04;;;;;;;34.10;13.77;;;;;;;-4.50;100.00;98045.44;4357665;32;20476;-70
2021/12/09 09:36:33;;;;;;;43.15;16.45;;;;;;;-4.25;100.00;98074.13;4359498;32;20538;-70
2021/12/09 09:39:16;;;;;;;50.20;16.60;;;;;;;-3.92;100.00;98121.16;4370704;32;20467;-70
2021/12/09 09:41:56;;;;;;;50.78;16.33;;;;;;;-3.96;100.00;98110.16;4359173;32;20035;-70
2021/12/09 09:44:29;;;;;;;45.83;19.50;;;;;;;-3.77;100.00;98114.06;4359242;32;20063;-71
2021/12/09 09:47:00;;;;;;;48.67;18.67;;;;;;;-4.20;100.00;98077.00;4343619;32;20401;-69
2021/12/09 09:49:30;;;;;;;55.80;19.65;;;;;;;-3.86;100.00;98115.97;4358078;32;20061;-71
2021/12/09 09:51:58;;;;;;;46.25;18.12;;;;;;;-3.83;100.00;98112.16;4364307;32;20083;-70
2021/12/09 09:54:25;;;;;;;46.33;17.35;;;;;;;-3.89;100.00;98120.78;4366535;32;20399;-71
2021/12/09 09:56:53;;;;;;;45.00;16.77;;;;;;;-3.90;100.00;98106.00;4356265;32;20039;-70
2021/12/09 09:59:19;;;;;;;52.85;18.02;;;;;;;-3.86;100.00;98109.88;4365424;32;20035;-70
2021/12/09 10:01:49;;;;;;;46.35;16.52;;;;;;;-3.95;100.00;98061.81;4361619;32;20426;-72
2021/12/09 10:04:44;;;;;;;40.45;15.07;;;;;;;-3.92;100.00;98052.78;4359159;32;20409;-72
2021/12/09 10:07:05;;;;;;;39.03;15.02;;;;;;;-3.68;100.00;98102.47;4358754;32;20061;-72
2021/12/09 10:09:33;;;;;;;39.15;11.75;;;;;;;-3.85;100.00;98056.28;4354050;32;20043;-73
2021/12/09 10:12:00;;;;;;;44.53;17.35;;;;;;;-3.61;100.00;98075.44;4354502;32;20047;-72
2021/12/09 10:14:32;;;;;;;43.38;14.98;;;;;;;-3.60;100.00;98082.34;4355536;32;20058;-72
2021/12/09 10:17:15;;;;;;;42.17;15.90;;;;;;;-3.80;100.00;98035.50;4356249;32;20062;-74
2021/12/09 10:19:55;;;;;;;41.35;15.63;;;;;;;-3.56;100.00;98091.50;4346954;32;20464;-73
2021/12/09 10:22:29;;;;;;;42.20;17.48;;;;;;;-3.74;100.00;98076.88;4360212;32;20113;-75
2021/12/09 10:24:58;;;;;;;57.20;22.13;;;;;;;-3.63;100.00;98093.22;4353522;32;20467;-73
2021/12/09 10:27:32;;;;;;;45.90;17.62;;;;;;;-4.07;100.00;98050.09;4341684;33;20789;-72
2021/12/09 10:30:21;;;;;;;48.60;18.30;;;;;;;-4.10;100.00;98024.16;4353401;32;20061;-73
2021/12/09 10:32:50;;;;;;;46.97;15.10;;;;;;;-3.57;100.00;98100.41;4354105;32;20074;-72
2021/12/09 10:35:20;;;;;;;48.15;17.05;;;;;;;-3.77;100.00;98050.94;4354520;32;20052;-72
2021/12/09 10:37:50;;;;;;;39.45;15.82;;;;;;;-3.40;100.00;98095.75;4355172;32;20048;-72
2021/12/09 10:40:23;;;;;;;50.30;17.65;;;;;;;-3.35;100.00;98088.94;4354149;32;20074;-71
2021/12/09 10:42:55;;;;;;;49.50;15.75;;;;;;;-3.51;100.00;98050.47;4354792;32;20024;-72
2021/12/09 10:45:25;;;;;;;43.83;15.27;;;;;;;-3.20;100.00;98077.56;4356304;32;20436;-72
2021/12/09 10:48:05;;;;;;;43.10;16.65;;;;;;;-3.41;100.00;98023.88;4356445;32;20125;-72
2021/12/09 10:51:03;;;;;;;47.13;16.73;;;;;;;-3.11;100.00;98079.91;4354779;32;20044;-73
2021/12/09 10:53:47;;;;;;;50.92;17.40;;;;;;;-3.33;100.00;98031.66;4359211;32;20443;-72
2021/12/09 10:56:27;;;;;;;37.28;16.08;;;;;;;-2.99;100.00;98084.69;4356225;32;20229;-72
2021/12/09 10:58:55;;;;;;;40.47;15.30;;;;;;;-2.94;100.00;98083.13;4366392;32;20047;-72
2021/12/09 11:01:24;;;;;;;42.22;15.75;;;;;;;-3.17;100.00;98035.09;4368632;32;20108;-73
2021/12/09 11:03:54;;;;;;;48.53;18.00;;;;;;;-2.85;100.00;98069.88;4370410;32;20927;-72
2021/12/09 11:06:35;;;;;;;45.05;15.45;;;;;;;-3.02;100.00;98069.25;4355750;32;20053;-72
2021/12/09 11:09:08;;;;;;;45.10;15.70;;;;;;;-2.93;100.00;98066.31;4366725;32;20043;-73
2021/12/09 11:11:37;;;;;;;46.10;17.10;;;;;;;-2.80;100.00;98057.75;4356819;32;20036;-73
2021/12/09 11:14:14;;;;;;;39.55;16.67;;;;;;;-2.88;100.00;98062.31;4354292;32;20069;-72
2021/12/09 11:16:49;;;;;;;49.33;19.92;;;;;;;-2.94;100.00;98053.34;4354809;32;20335;-72
2021/12/09 11:19:34;;;;;;;29.83;9.70;;;;;;;-2.93;100.00;98037.34;4354221;32;20070;-72
2021/12/09 11:22:06;;;;;;;41.03;16.55;;;;;;;-3.17;100.00;97983.22;4354857;32;20341;-72